In Rescue
 
Open Full Screen Window  High Contrast Mode
Wind Gusting 11 knots
05
May 13, 2021 10:55 AM EDT
Weather Information
Wind Direction
  VRB °
Wind Speed
  05 kt (6 mph)
Wind Gust
  11 kt (13 mph)
Altimeter
30.26 in
Visibility
10 SM
Temperature
17° C
63° F
Dewpoint
-00° C
32° F
Humidity
32%
1hr Rain Fall
00.00 in.
24hr Rain Fall
00.00 in.
Sky Condition
Clear
VFR

METAR KUKT 131455Z AUTO VRB05G11KT 10SM CLR 17/M00 A3026 RMK A01

FAA Disclaimer: The data displayed is for advisory purposes only and is not to be used for flight planning or operations.